sensor_id;sensor_type;location;lat;lon;timestamp;P1;durP1;ratioP1;P2;durP2;ratioP2
6145;SDS011;3104;50.348;7.620;2022-09-12T00:00:44;11.47;;;10.00;;
6145;SDS011;3104;50.348;7.620;2022-09-12T00:03:10;14.17;;;11.30;;
6145;SDS011;3104;50.348;7.620;2022-09-12T00:05:42;10.30;;;9.10;;
6145;SDS011;3104;50.348;7.620;2022-09-12T00:08:10;11.33;;;10.23;;
6145;SDS011;3104;50.348;7.620;2022-09-12T00:10:39;11.50;;;10.37;;
6145;SDS011;3104;50.348;7.620;2022-09-12T00:13:06;11.80;;;10.63;;
6145;SDS011;3104;50.348;7.620;2022-09-12T00:15:37;14.77;;;11.27;;
6145;SDS011;3104;50.348;7.620;2022-09-12T00:18:03;10.73;;;9.57;;
6145;SDS011;3104;50.348;7.620;2022-09-12T00:20:29;12.60;;;11.30;;
6145;SDS011;3104;50.348;7.620;2022-09-12T00:22:55;12.60;;;10.60;;
6145;SDS011;3104;50.348;7.620;2022-09-12T00:25:20;10.07;;;9.07;;
6145;SDS011;3104;50.348;7.620;2022-09-12T00:27:46;11.07;;;9.97;;
6145;SDS011;3104;50.348;7.620;2022-09-12T00:30:11;10.47;;;9.47;;
6145;SDS011;3104;50.348;7.620;2022-09-12T00:32:37;14.73;;;12.90;;
6145;SDS011;3104;50.348;7.620;2022-09-12T00:35:02;11.00;;;9.57;;
6145;SDS011;3104;50.348;7.620;2022-09-12T00:37:28;12.30;;;10.70;;
6145;SDS011;3104;50.348;7.620;2022-09-12T00:39:54;12.30;;;9.33;;
6145;SDS011;3104;50.348;7.620;2022-09-12T00:42:19;13.17;;;10.50;;
6145;SDS011;3104;50.348;7.620;2022-09-12T00:44:47;11.47;;;9.93;;
6145;SDS011;3104;50.348;7.620;2022-09-12T00:49:44;9.43;;;8.63;;
6145;SDS011;3104;50.348;7.620;2022-09-12T00:52:56;10.40;;;9.40;;
6145;SDS011;3104;50.348;7.620;2022-09-12T00:55:34;10.27;;;8.20;;
6145;SDS011;3104;50.348;7.620;2022-09-12T00:58:13;10.93;;;9.10;;
6145;SDS011;3104;50.348;7.620;2022-09-12T01:00:46;9.33;;;8.43;;
6145;SDS011;3104;50.348;7.620;2022-09-12T01:03:13;10.90;;;9.83;;
6145;SDS011;3104;50.348;7.620;2022-09-12T01:06:02;9.20;;;8.30;;
6145;SDS011;3104;50.348;7.620;2022-09-12T01:08:35;11.17;;;9.00;;
6145;SDS011;3104;50.348;7.620;2022-09-12T01:11:03;9.77;;;8.77;;
6145;SDS011;3104;50.348;7.620;2022-09-12T01:13:30;10.87;;;9.77;;
6145;SDS011;3104;50.348;7.620;2022-09-12T01:15:58;10.90;;;8.67;;
6145;SDS011;3104;50.348;7.620;2022-09-12T01:18:27;11.43;;;8.83;;
6145;SDS011;3104;50.348;7.620;2022-09-12T01:32:14;12.33;;;11.13;;
6145;SDS011;3104;50.348;7.620;2022-09-12T01:37:30;11.67;;;9.33;;
6145;SDS011;3104;50.348;7.620;2022-09-12T01:40:05;10.17;;;8.93;;
6145;SDS011;3104;50.348;7.620;2022-09-12T01:45:37;13.10;;;9.90;;
6145;SDS011;3104;50.348;7.620;2022-09-12T01:48:18;12.30;;;11.10;;
6145;SDS011;3104;50.348;7.620;2022-09-12T01:51:09;11.90;;;9.43;;
6145;SDS011;3104;50.348;7.620;2022-09-12T01:53:40;11.67;;;10.60;;
6145;SDS011;3104;50.348;7.620;2022-09-12T01:56:18;13.87;;;10.30;;
6145;SDS011;3104;50.348;7.620;2022-09-12T02:01:29;10.97;;;9.80;;
6145;SDS011;3104;50.348;7.620;2022-09-12T02:04:08;12.57;;;11.37;;
6145;SDS011;3104;50.348;7.620;2022-09-12T02:09:18;11.10;;;9.70;;
6145;SDS011;3104;50.348;7.620;2022-09-12T02:11:54;11.80;;;10.60;;
6145;SDS011;3104;50.348;7.620;2022-09-12T02:14:23;12.00;;;9.67;;
6145;SDS011;3104;50.348;7.620;2022-09-12T02:17:03;12.27;;;10.40;;
6145;SDS011;3104;50.348;7.620;2022-09-12T02:19:36;15.87;;;12.20;;
6145;SDS011;3104;50.348;7.620;2022-09-12T02:22:16;11.17;;;10.10;;
6145;SDS011;3104;50.348;7.620;2022-09-12T02:24:45;12.20;;;10.63;;
6145;SDS011;3104;50.348;7.620;2022-09-12T02:27:14;12.07;;;10.73;;
6145;SDS011;3104;50.348;7.620;2022-09-12T02:29:52;12.83;;;11.13;;
6145;SDS011;3104;50.348;7.620;2022-09-12T02:37:56;19.17;;;13.50;;
6145;SDS011;3104;50.348;7.620;2022-09-12T02:40:34;14.07;;;12.47;;
6145;SDS011;3104;50.348;7.620;2022-09-12T02:43:00;14.10;;;12.33;;
6145;SDS011;3104;50.348;7.620;2022-09-12T02:45:28;14.83;;;12.90;;
6145;SDS011;3104;50.348;7.620;2022-09-12T02:50:29;14.07;;;12.27;;
6145;SDS011;3104;50.348;7.620;2022-09-12T02:52:56;16.33;;;12.00;;
6145;SDS011;3104;50.348;7.620;2022-09-12T02:55:28;15.53;;;11.83;;
6145;SDS011;3104;50.348;7.620;2022-09-12T02:57:59;14.00;;;12.03;;
6145;SDS011;3104;50.348;7.620;2022-09-12T03:00:28;13.00;;;11.60;;
6145;SDS011;3104;50.348;7.620;2022-09-12T03:27:39;13.20;;;10.30;;
6145;SDS011;3104;50.348;7.620;2022-09-12T03:30:16;13.87;;;11.50;;
6145;SDS011;3104;50.348;7.620;2022-09-12T03:32:42;13.00;;;11.67;;
6145;SDS011;3104;50.348;7.620;2022-09-12T03:35:13;14.30;;;12.57;;
6145;SDS011;3104;50.348;7.620;2022-09-12T03:37:40;14.00;;;11.87;;
6145;SDS011;3104;50.348;7.620;2022-09-12T03:40:06;12.13;;;10.83;;
6145;SDS011;3104;50.348;7.620;2022-09-12T03:42:33;12.93;;;11.60;;
6145;SDS011;3104;50.348;7.620;2022-09-12T03:44:59;17.43;;;12.40;;
6145;SDS011;3104;50.348;7.620;2022-09-12T03:47:24;12.03;;;10.47;;
6145;SDS011;3104;50.348;7.620;2022-09-12T03:49:50;15.23;;;11.73;;
6145;SDS011;3104;50.348;7.620;2022-09-12T03:52:16;12.63;;;10.17;;
6145;SDS011;3104;50.348;7.620;2022-09-12T03:54:42;12.57;;;10.40;;
6145;SDS011;3104;50.348;7.620;2022-09-12T03:57:08;13.17;;;11.80;;
6145;SDS011;3104;50.348;7.620;2022-09-12T03:59:33;14.37;;;11.50;;
6145;SDS011;3104;50.348;7.620;2022-09-12T04:01:59;61.63;;;15.40;;
6145;SDS011;3104;50.348;7.620;2022-09-12T04:04:25;37.90;;;14.57;;
6145;SDS011;3104;50.348;7.620;2022-09-12T04:06:51;18.00;;;12.83;;
6145;SDS011;3104;50.348;7.620;2022-09-12T04:09:16;32.00;;;14.53;;
6145;SDS011;3104;50.348;7.620;2022-09-12T04:11:42;17.30;;;14.60;;
6145;SDS011;3104;50.348;7.620;2022-09-12T04:14:08;87.50;;;17.23;;
6145;SDS011;3104;50.348;7.620;2022-09-12T04:16:33;97.60;;;18.47;;
6145;SDS011;3104;50.348;7.620;2022-09-12T04:18:59;72.90;;;16.33;;
6145;SDS011;3104;50.348;7.620;2022-09-12T04:21:25;162.87;;;18.00;;
6145;SDS011;3104;50.348;7.620;2022-09-12T04:23:50;14.23;;;12.30;;
6145;SDS011;3104;50.348;7.620;2022-09-12T04:26:16;75.87;;;15.27;;
6145;SDS011;3104;50.348;7.620;2022-09-12T04:28:44;129.40;;;18.90;;
6145;SDS011;3104;50.348;7.620;2022-09-12T04:31:11;164.93;;;20.37;;
6145;SDS011;3104;50.348;7.620;2022-09-12T04:33:39;168.63;;;22.27;;
6145;SDS011;3104;50.348;7.620;2022-09-12T04:36:07;307.10;;;26.47;;
6145;SDS011;3104;50.348;7.620;2022-09-12T04:38:34;96.93;;;18.50;;
6145;SDS011;3104;50.348;7.620;2022-09-12T04:41:08;101.00;;;16.70;;
6145;SDS011;3104;50.348;7.620;2022-09-12T04:43:38;117.63;;;16.67;;
6145;SDS011;3104;50.348;7.620;2022-09-12T04:46:07;73.33;;;13.70;;
6145;SDS011;3104;50.348;7.620;2022-09-12T04:48:34;32.57;;;12.63;;
6145;SDS011;3104;50.348;7.620;2022-09-12T04:51:07;57.40;;;13.93;;
6145;SDS011;3104;50.348;7.620;2022-09-12T04:53:34;55.10;;;14.50;;
6145;SDS011;3104;50.348;7.620;2022-09-12T04:56:01;60.73;;;14.57;;
6145;SDS011;3104;50.348;7.620;2022-09-12T04:58:32;64.60;;;16.00;;
6145;SDS011;3104;50.348;7.620;2022-09-12T05:01:05;24.67;;;13.13;;
6145;SDS011;3104;50.348;7.620;2022-09-12T05:03:33;22.83;;;11.57;;
6145;SDS011;3104;50.348;7.620;2022-09-12T05:06:02;36.70;;;11.93;;
6145;SDS011;3104;50.348;7.620;2022-09-12T05:08:28;22.23;;;12.20;;
6145;SDS011;3104;50.348;7.620;2022-09-12T05:10:53;29.43;;;12.90;;
6145;SDS011;3104;50.348;7.620;2022-09-12T05:13:19;15.67;;;12.37;;
6145;SDS011;3104;50.348;7.620;2022-09-12T05:15:55;13.20;;;11.80;;
6145;SDS011;3104;50.348;7.620;2022-09-12T05:18:22;12.30;;;11.00;;
6145;SDS011;3104;50.348;7.620;2022-09-12T05:20:48;12.03;;;10.83;;
6145;SDS011;3104;50.348;7.620;2022-09-12T05:23:14;13.43;;;11.67;;
6145;SDS011;3104;50.348;7.620;2022-09-12T05:25:46;14.40;;;12.90;;
6145;SDS011;3104;50.348;7.620;2022-09-12T05:28:13;21.43;;;12.20;;
6145;SDS011;3104;50.348;7.620;2022-09-12T05:30:39;28.90;;;12.40;;
6145;SDS011;3104;50.348;7.620;2022-09-12T05:33:04;13.67;;;12.23;;
6145;SDS011;3104;50.348;7.620;2022-09-12T05:35:30;64.80;;;19.33;;
6145;SDS011;3104;50.348;7.620;2022-09-12T05:37:57;38.67;;;15.50;;
6145;SDS011;3104;50.348;7.620;2022-09-12T05:40:22;92.90;;;20.10;;
6145;SDS011;3104;50.348;7.620;2022-09-12T05:42:48;24.07;;;14.73;;
6145;SDS011;3104;50.348;7.620;2022-09-12T05:45:14;170.33;;;23.30;;
6145;SDS011;3104;50.348;7.620;2022-09-12T05:47:39;24.70;;;14.33;;
6145;SDS011;3104;50.348;7.620;2022-09-12T05:50:06;51.20;;;16.37;;
6145;SDS011;3104;50.348;7.620;2022-09-12T05:52:35;39.67;;;13.30;;
6145;SDS011;3104;50.348;7.620;2022-09-12T05:55:01;16.50;;;14.00;;
6145;SDS011;3104;50.348;7.620;2022-09-12T05:57:26;14.23;;;12.67;;
6145;SDS011;3104;50.348;7.620;2022-09-12T05:59:53;18.50;;;13.70;;
6145;SDS011;3104;50.348;7.620;2022-09-12T06:02:18;13.00;;;11.60;;
6145;SDS011;3104;50.348;7.620;2022-09-12T06:04:44;13.17;;;11.87;;
6145;SDS011;3104;50.348;7.620;2022-09-12T06:07:10;13.80;;;10.50;;
6145;SDS011;3104;50.348;7.620;2022-09-12T06:09:36;11.17;;;9.93;;
6145;SDS011;3104;50.348;7.620;2022-09-12T06:12:01;14.23;;;11.83;;
6145;SDS011;3104;50.348;7.620;2022-09-12T06:14:27;11.73;;;10.53;;
6145;SDS011;3104;50.348;7.620;2022-09-12T06:16:53;11.83;;;9.57;;
6145;SDS011;3104;50.348;7.620;2022-09-12T06:19:19;11.63;;;10.47;;
6145;SDS011;3104;50.348;7.620;2022-09-12T06:21:47;11.20;;;10.03;;
6145;SDS011;3104;50.348;7.620;2022-09-12T06:24:17;14.20;;;12.67;;
6145;SDS011;3104;50.348;7.620;2022-09-12T06:26:43;15.17;;;12.90;;
6145;SDS011;3104;50.348;7.620;2022-09-12T06:29:09;14.50;;;12.03;;
6145;SDS011;3104;50.348;7.620;2022-09-12T06:31:36;15.00;;;12.13;;
6145;SDS011;3104;50.348;7.620;2022-09-12T06:34:03;18.47;;;13.40;;
6145;SDS011;3104;50.348;7.620;2022-09-12T06:36:31;16.40;;;13.20;;
6145;SDS011;3104;50.348;7.620;2022-09-12T06:39:01;15.30;;;13.17;;
6145;SDS011;3104;50.348;7.620;2022-09-12T06:41:29;19.67;;;13.63;;
6145;SDS011;3104;50.348;7.620;2022-09-12T06:43:55;25.30;;;15.10;;
6145;SDS011;3104;50.348;7.620;2022-09-12T06:46:21;20.17;;;14.23;;
6145;SDS011;3104;50.348;7.620;2022-09-12T06:48:47;27.00;;;14.13;;
6145;SDS011;3104;50.348;7.620;2022-09-12T06:51:14;20.07;;;14.67;;
6145;SDS011;3104;50.348;7.620;2022-09-12T06:53:41;18.40;;;14.17;;
6145;SDS011;3104;50.348;7.620;2022-09-12T06:56:09;17.40;;;14.50;;
6145;SDS011;3104;50.348;7.620;2022-09-12T06:58:37;16.80;;;14.13;;
6145;SDS011;3104;50.348;7.620;2022-09-12T07:03:31;14.80;;;13.23;;
6145;SDS011;3104;50.348;7.620;2022-09-12T07:06:01;11.73;;;10.53;;
6145;SDS011;3104;50.348;7.620;2022-09-12T07:08:31;9.77;;;8.77;;
6145;SDS011;3104;50.348;7.620;2022-09-12T07:10:58;11.90;;;9.50;;
6145;SDS011;3104;50.348;7.620;2022-09-12T07:13:31;10.37;;;9.03;;
6145;SDS011;3104;50.348;7.620;2022-09-12T07:16:00;12.10;;;10.77;;
6145;SDS011;3104;50.348;7.620;2022-09-12T07:18:26;12.17;;;10.13;;
6145;SDS011;3104;50.348;7.620;2022-09-12T07:20:51;11.07;;;9.97;;
6145;SDS011;3104;50.348;7.620;2022-09-12T07:23:17;12.20;;;10.93;;
6145;SDS011;3104;50.348;7.620;2022-09-12T07:25:43;12.47;;;11.13;;
6145;SDS011;3104;50.348;7.620;2022-09-12T07:28:15;10.93;;;9.73;;
6145;SDS011;3104;50.348;7.620;2022-09-12T07:30:41;15.40;;;11.50;;
6145;SDS011;3104;50.348;7.620;2022-09-12T07:33:06;12.20;;;9.20;;
6145;SDS011;3104;50.348;7.620;2022-09-12T07:35:33;11.90;;;10.70;;
6145;SDS011;3104;50.348;7.620;2022-09-12T07:37:58;11.50;;;10.40;;
6145;SDS011;3104;50.348;7.620;2022-09-12T07:40:24;12.40;;;11.30;;
6145;SDS011;3104;50.348;7.620;2022-09-12T07:42:50;12.43;;;10.83;;
6145;SDS011;3104;50.348;7.620;2022-09-12T07:45:15;14.43;;;12.53;;
6145;SDS011;3104;50.348;7.620;2022-09-12T07:47:41;16.57;;;12.83;;
6145;SDS011;3104;50.348;7.620;2022-09-12T07:50:07;16.47;;;13.27;;
6145;SDS011;3104;50.348;7.620;2022-09-12T07:52:33;13.30;;;12.00;;
6145;SDS011;3104;50.348;7.620;2022-09-12T07:54:58;13.83;;;11.80;;
6145;SDS011;3104;50.348;7.620;2022-09-12T07:57:24;13.23;;;11.93;;
6145;SDS011;3104;50.348;7.620;2022-09-12T07:59:49;13.17;;;11.60;;
6145;SDS011;3104;50.348;7.620;2022-09-12T08:02:15;12.77;;;11.47;;
6145;SDS011;3104;50.348;7.620;2022-09-12T08:04:40;12.60;;;11.30;;
6145;SDS011;3104;50.348;7.620;2022-09-12T08:07:07;13.30;;;12.10;;
6145;SDS011;3104;50.348;7.620;2022-09-12T08:09:33;12.40;;;10.70;;
6145;SDS011;3104;50.348;7.620;2022-09-12T08:11:59;12.47;;;11.23;;
6145;SDS011;3104;50.348;7.620;2022-09-12T08:14:25;18.03;;;13.23;;
6145;SDS011;3104;50.348;7.620;2022-09-12T08:16:51;14.13;;;12.23;;
6145;SDS011;3104;50.348;7.620;2022-09-12T08:19:17;15.80;;;11.87;;
6145;SDS011;3104;50.348;7.620;2022-09-12T08:21:43;14.13;;;12.07;;
6145;SDS011;3104;50.348;7.620;2022-09-12T08:24:09;15.77;;;13.07;;
6145;SDS011;3104;50.348;7.620;2022-09-12T08:26:36;13.17;;;11.87;;
6145;SDS011;3104;50.348;7.620;2022-09-12T08:29:02;13.53;;;11.70;;
6145;SDS011;3104;50.348;7.620;2022-09-12T08:31:28;13.23;;;11.83;;
6145;SDS011;3104;50.348;7.620;2022-09-12T08:34:00;14.30;;;13.00;;
6145;SDS011;3104;50.348;7.620;2022-09-12T08:36:27;14.47;;;12.97;;
6145;SDS011;3104;50.348;7.620;2022-09-12T08:38:54;14.93;;;12.10;;
6145;SDS011;3104;50.348;7.620;2022-09-12T08:41:37;11.93;;;10.80;;
6145;SDS011;3104;50.348;7.620;2022-09-12T08:57:45;9.83;;;8.83;;
6145;SDS011;3104;50.348;7.620;2022-09-12T09:00:12;15.10;;;10.63;;
6145;SDS011;3104;50.348;7.620;2022-09-12T09:13:22;10.20;;;9.20;;
6145;SDS011;3104;50.348;7.620;2022-09-12T09:16:36;9.80;;;9.00;;
6145;SDS011;3104;50.348;7.620;2022-09-12T09:19:04;10.23;;;9.07;;
6145;SDS011;3104;50.348;7.620;2022-09-12T09:21:56;10.47;;;9.47;;
6145;SDS011;3104;50.348;7.620;2022-09-12T09:24:26;11.20;;;10.10;;
6145;SDS011;3104;50.348;7.620;2022-09-12T09:27:01;10.60;;;9.60;;
6145;SDS011;3104;50.348;7.620;2022-09-12T09:32:11;10.97;;;8.47;;
6145;SDS011;3104;50.348;7.620;2022-09-12T09:34:42;9.10;;;8.37;;
6145;SDS011;3104;50.348;7.620;2022-09-12T09:37:18;8.87;;;8.07;;
6145;SDS011;3104;50.348;7.620;2022-09-12T09:45:41;8.50;;;7.70;;
6145;SDS011;3104;50.348;7.620;2022-09-12T09:50:35;7.40;;;6.77;;
6145;SDS011;3104;50.348;7.620;2022-09-12T09:53:02;7.70;;;7.10;;
6145;SDS011;3104;50.348;7.620;2022-09-12T09:55:29;8.20;;;7.50;;
6145;SDS011;3104;50.348;7.620;2022-09-12T09:58:04;8.40;;;7.60;;
6145;SDS011;3104;50.348;7.620;2022-09-12T10:00:31;7.47;;;6.87;;
6145;SDS011;3104;50.348;7.620;2022-09-12T10:08:22;7.07;;;6.57;;
6145;SDS011;3104;50.348;7.620;2022-09-12T10:13:25;9.23;;;6.87;;
6145;SDS011;3104;50.348;7.620;2022-09-12T10:15:56;7.30;;;6.60;;
6145;SDS011;3104;50.348;7.620;2022-09-12T10:18:34;6.27;;;5.87;;
6145;SDS011;3104;50.348;7.620;2022-09-12T10:21:05;7.33;;;6.73;;
6145;SDS011;3104;50.348;7.620;2022-09-12T10:23:38;7.57;;;5.87;;
6145;SDS011;3104;50.348;7.620;2022-09-12T10:26:12;5.73;;;5.43;;
6145;SDS011;3104;50.348;7.620;2022-09-12T10:28:41;6.30;;;5.80;;
6145;SDS011;3104;50.348;7.620;2022-09-12T10:31:09;6.37;;;5.97;;
6145;SDS011;3104;50.348;7.620;2022-09-12T10:33:44;5.70;;;5.30;;
6145;SDS011;3104;50.348;7.620;2022-09-12T10:36:17;5.90;;;5.40;;
6145;SDS011;3104;50.348;7.620;2022-09-12T10:38:50;6.83;;;6.33;;
6145;SDS011;3104;50.348;7.620;2022-09-12T10:41:19;6.40;;;5.90;;
6145;SDS011;3104;50.348;7.620;2022-09-12T10:43:45;7.70;;;6.20;;
6145;SDS011;3104;50.348;7.620;2022-09-12T10:48:46;5.93;;;5.53;;
6145;SDS011;3104;50.348;7.620;2022-09-12T10:53:48;6.30;;;5.90;;
6145;SDS011;3104;50.348;7.620;2022-09-12T10:56:37;5.97;;;5.20;;
6145;SDS011;3104;50.348;7.620;2022-09-12T11:02:19;6.50;;;5.63;;
6145;SDS011;3104;50.348;7.620;2022-09-12T11:05:09;7.93;;;6.53;;
6145;SDS011;3104;50.348;7.620;2022-09-12T11:07:45;5.23;;;4.93;;
6145;SDS011;3104;50.348;7.620;2022-09-12T11:18:12;5.30;;;5.00;;
6145;SDS011;3104;50.348;7.620;2022-09-12T11:29:11;3.97;;;3.77;;
6145;SDS011;3104;50.348;7.620;2022-09-12T11:37:13;3.90;;;3.70;;
6145;SDS011;3104;50.348;7.620;2022-09-12T11:42:58;3.70;;;3.50;;
6145;SDS011;3104;50.348;7.620;2022-09-12T11:45:50;4.50;;;4.20;;
6145;SDS011;3104;50.348;7.620;2022-09-12T11:50:56;4.20;;;4.00;;
6145;SDS011;3104;50.348;7.620;2022-09-12T11:53:27;3.67;;;3.47;;
6145;SDS011;3104;50.348;7.620;2022-09-12T11:56:01;3.70;;;3.50;;
6145;SDS011;3104;50.348;7.620;2022-09-12T11:58:29;3.53;;;3.27;;
6145;SDS011;3104;50.348;7.620;2022-09-12T12:00:56;4.33;;;4.03;;
6145;SDS011;3104;50.348;7.620;2022-09-12T12:03:42;3.93;;;3.63;;
6145;SDS011;3104;50.348;7.620;2022-09-12T12:06:16;4.53;;;4.23;;
6145;SDS011;3104;50.348;7.620;2022-09-12T12:08:51;3.10;;;3.00;;
6145;SDS011;3104;50.348;7.620;2022-09-12T12:11:25;3.10;;;2.90;;
6145;SDS011;3104;50.348;7.620;2022-09-12T12:13:58;4.10;;;3.83;;
6145;SDS011;3104;50.348;7.620;2022-09-12T12:16:32;3.30;;;3.10;;
6145;SDS011;3104;50.348;7.620;2022-09-12T12:19:03;3.37;;;3.17;;
6145;SDS011;3104;50.348;7.620;2022-09-12T12:21:45;3.60;;;3.33;;
6145;SDS011;3104;50.348;7.620;2022-09-12T12:24:14;3.10;;;3.00;;
6145;SDS011;3104;50.348;7.620;2022-09-12T12:29:41;3.23;;;3.10;;
6145;SDS011;3104;50.348;7.620;2022-09-12T12:34:35;3.37;;;3.17;;
6145;SDS011;3104;50.348;7.620;2022-09-12T12:44:58;3.47;;;3.27;;
6145;SDS011;3104;50.348;7.620;2022-09-12T12:47:38;2.87;;;2.67;;
6145;SDS011;3104;50.348;7.620;2022-09-12T12:50:11;3.20;;;3.00;;
6145;SDS011;3104;50.348;7.620;2022-09-12T12:55:35;2.40;;;2.30;;
6145;SDS011;3104;50.348;7.620;2022-09-12T12:58:18;2.90;;;2.77;;
6145;SDS011;3104;50.348;7.620;2022-09-12T13:03:33;3.70;;;3.50;;
6145;SDS011;3104;50.348;7.620;2022-09-12T13:06:01;3.37;;;3.00;;
6145;SDS011;3104;50.348;7.620;2022-09-12T13:08:34;3.37;;;3.17;;
6145;SDS011;3104;50.348;7.620;2022-09-12T13:11:10;3.23;;;3.03;;
6145;SDS011;3104;50.348;7.620;2022-09-12T13:13:50;3.40;;;3.10;;
6145;SDS011;3104;50.348;7.620;2022-09-12T13:16:32;3.47;;;3.27;;
6145;SDS011;3104;50.348;7.620;2022-09-12T13:19:03;3.33;;;3.13;;
6145;SDS011;3104;50.348;7.620;2022-09-12T13:21:55;5.57;;;2.90;;
6145;SDS011;3104;50.348;7.620;2022-09-12T13:24:22;2.97;;;2.77;;
6145;SDS011;3104;50.348;7.620;2022-09-12T13:26:48;4.07;;;3.10;;
6145;SDS011;3104;50.348;7.620;2022-09-12T13:29:17;3.37;;;3.17;;
6145;SDS011;3104;50.348;7.620;2022-09-12T13:31:46;3.60;;;3.33;;
6145;SDS011;3104;50.348;7.620;2022-09-12T13:34:19;3.57;;;3.27;;
6145;SDS011;3104;50.348;7.620;2022-09-12T13:44:47;3.17;;;2.70;;
6145;SDS011;3104;50.348;7.620;2022-09-12T13:47:38;3.10;;;2.90;;
6145;SDS011;3104;50.348;7.620;2022-09-12T13:50:12;2.80;;;2.70;;
6145;SDS011;3104;50.348;7.620;2022-09-12T13:52:45;4.03;;;2.50;;
6145;SDS011;3104;50.348;7.620;2022-09-12T13:55:24;3.03;;;2.83;;
6145;SDS011;3104;50.348;7.620;2022-09-12T13:57:55;2.87;;;2.67;;
6145;SDS011;3104;50.348;7.620;2022-09-12T14:00:25;2.97;;;2.87;;
6145;SDS011;3104;50.348;7.620;2022-09-12T14:02:52;3.13;;;2.93;;
6145;SDS011;3104;50.348;7.620;2022-09-12T14:05:38;3.17;;;2.77;;
6145;SDS011;3104;50.348;7.620;2022-09-12T14:08:08;3.43;;;3.23;;
6145;SDS011;3104;50.348;7.620;2022-09-12T14:10:39;2.70;;;2.60;;
6145;SDS011;3104;50.348;7.620;2022-09-12T14:13:11;3.07;;;2.97;;
6145;SDS011;3104;50.348;7.620;2022-09-12T14:16:03;3.43;;;3.23;;
6145;SDS011;3104;50.348;7.620;2022-09-12T14:18:34;3.63;;;3.30;;
6145;SDS011;3104;50.348;7.620;2022-09-12T14:21:06;3.00;;;2.80;;
6145;SDS011;3104;50.348;7.620;2022-09-12T14:23:34;3.33;;;3.13;;
6145;SDS011;3104;50.348;7.620;2022-09-12T14:26:07;3.40;;;3.20;;
6145;SDS011;3104;50.348;7.620;2022-09-12T14:28:36;2.90;;;2.70;;
6145;SDS011;3104;50.348;7.620;2022-09-12T14:31:06;5.30;;;3.67;;
6145;SDS011;3104;50.348;7.620;2022-09-12T14:34:10;3.00;;;2.80;;
6145;SDS011;3104;50.348;7.620;2022-09-12T14:36:51;4.10;;;2.80;;
6145;SDS011;3104;50.348;7.620;2022-09-12T14:41:48;3.10;;;2.97;;
6145;SDS011;3104;50.348;7.620;2022-09-12T14:44:20;5.30;;;3.13;;
6145;SDS011;3104;50.348;7.620;2022-09-12T14:46:49;2.47;;;2.37;;
6145;SDS011;3104;50.348;7.620;2022-09-12T14:49:17;2.70;;;2.60;;
6145;SDS011;3104;50.348;7.620;2022-09-12T14:54:44;3.00;;;2.90;;
6145;SDS011;3104;50.348;7.620;2022-09-12T14:57:37;2.90;;;2.70;;
6145;SDS011;3104;50.348;7.620;2022-09-12T15:00:07;3.03;;;2.73;;
6145;SDS011;3104;50.348;7.620;2022-09-12T15:02:37;3.77;;;3.47;;
6145;SDS011;3104;50.348;7.620;2022-09-12T15:10:06;3.13;;;2.83;;
6145;SDS011;3104;50.348;7.620;2022-09-12T15:12:49;3.40;;;3.20;;
6145;SDS011;3104;50.348;7.620;2022-09-12T15:15:28;3.67;;;3.37;;
6145;SDS011;3104;50.348;7.620;2022-09-12T15:17:53;2.90;;;2.80;;
6145;SDS011;3104;50.348;7.620;2022-09-12T15:20:19;3.83;;;3.50;;
6145;SDS011;3104;50.348;7.620;2022-09-12T15:22:44;3.10;;;2.90;;
6145;SDS011;3104;50.348;7.620;2022-09-12T15:25:11;2.67;;;2.53;;
6145;SDS011;3104;50.348;7.620;2022-09-12T15:27:37;2.73;;;2.63;;
6145;SDS011;3104;50.348;7.620;2022-09-12T15:30:10;3.07;;;2.77;;
6145;SDS011;3104;50.348;7.620;2022-09-12T15:32:37;2.70;;;2.60;;
6145;SDS011;3104;50.348;7.620;2022-09-12T15:35:22;3.53;;;2.87;;
6145;SDS011;3104;50.348;7.620;2022-09-12T15:37:49;2.93;;;2.73;;
6145;SDS011;3104;50.348;7.620;2022-09-12T15:40:15;2.93;;;2.73;;
6145;SDS011;3104;50.348;7.620;2022-09-12T15:42:42;2.93;;;2.77;;
6145;SDS011;3104;50.348;7.620;2022-09-12T15:45:25;3.50;;;3.20;;
6145;SDS011;3104;50.348;7.620;2022-09-12T15:47:54;4.10;;;2.93;;
6145;SDS011;3104;50.348;7.620;2022-09-12T15:50:20;3.37;;;3.17;;
6145;SDS011;3104;50.348;7.620;2022-09-12T15:52:46;3.40;;;3.10;;
6145;SDS011;3104;50.348;7.620;2022-09-12T15:55:15;3.70;;;3.50;;
6145;SDS011;3104;50.348;7.620;2022-09-12T15:57:41;3.30;;;3.10;;
6145;SDS011;3104;50.348;7.620;2022-09-12T16:00:07;6.73;;;3.17;;
6145;SDS011;3104;50.348;7.620;2022-09-12T16:02:34;2.87;;;2.77;;
6145;SDS011;3104;50.348;7.620;2022-09-12T16:04:59;3.33;;;3.03;;
6145;SDS011;3104;50.348;7.620;2022-09-12T16:07:25;3.63;;;3.43;;
6145;SDS011;3104;50.348;7.620;2022-09-12T16:09:51;3.70;;;3.50;;
6145;SDS011;3104;50.348;7.620;2022-09-12T16:12:16;4.17;;;3.50;;
6145;SDS011;3104;50.348;7.620;2022-09-12T16:14:42;3.97;;;3.77;;
6145;SDS011;3104;50.348;7.620;2022-09-12T16:17:08;3.47;;;3.27;;
6145;SDS011;3104;50.348;7.620;2022-09-12T16:19:34;3.43;;;3.23;;
6145;SDS011;3104;50.348;7.620;2022-09-12T16:22:00;3.90;;;3.43;;
6145;SDS011;3104;50.348;7.620;2022-09-12T16:24:26;5.60;;;5.10;;
6145;SDS011;3104;50.348;7.620;2022-09-12T16:26:51;3.57;;;3.37;;
6145;SDS011;3104;50.348;7.620;2022-09-12T16:29:17;3.43;;;3.20;;
6145;SDS011;3104;50.348;7.620;2022-09-12T16:31:42;3.47;;;3.27;;
6145;SDS011;3104;50.348;7.620;2022-09-12T16:34:09;3.60;;;3.40;;
6145;SDS011;3104;50.348;7.620;2022-09-12T16:36:35;3.67;;;3.40;;
6145;SDS011;3104;50.348;7.620;2022-09-12T16:39:01;3.47;;;3.27;;
6145;SDS011;3104;50.348;7.620;2022-09-12T16:41:26;3.77;;;3.47;;
6145;SDS011;3104;50.348;7.620;2022-09-12T16:43:52;4.00;;;3.70;;
6145;SDS011;3104;50.348;7.620;2022-09-12T16:46:26;4.00;;;3.70;;
6145;SDS011;3104;50.348;7.620;2022-09-12T16:48:53;4.03;;;3.83;;
6145;SDS011;3104;50.348;7.620;2022-09-12T16:51:21;4.20;;;3.90;;
6145;SDS011;3104;50.348;7.620;2022-09-12T16:53:49;3.80;;;3.27;;
6145;SDS011;3104;50.348;7.620;2022-09-12T16:56:15;3.63;;;3.43;;
6145;SDS011;3104;50.348;7.620;2022-09-12T16:58:41;3.83;;;3.63;;
6145;SDS011;3104;50.348;7.620;2022-09-12T17:01:08;4.27;;;3.70;;
6145;SDS011;3104;50.348;7.620;2022-09-12T17:03:35;4.33;;;3.90;;
6145;SDS011;3104;50.348;7.620;2022-09-12T17:06:02;4.10;;;3.90;;
6145;SDS011;3104;50.348;7.620;2022-09-12T17:08:31;5.43;;;3.60;;
6145;SDS011;3104;50.348;7.620;2022-09-12T17:11:04;3.57;;;3.37;;
6145;SDS011;3104;50.348;7.620;2022-09-12T17:13:35;4.80;;;3.40;;
6145;SDS011;3104;50.348;7.620;2022-09-12T17:16:08;4.07;;;3.77;;
6145;SDS011;3104;50.348;7.620;2022-09-12T17:18:35;4.30;;;3.47;;
6145;SDS011;3104;50.348;7.620;2022-09-12T17:21:02;3.67;;;3.47;;
6145;SDS011;3104;50.348;7.620;2022-09-12T17:23:27;3.83;;;3.63;;
6145;SDS011;3104;50.348;7.620;2022-09-12T17:25:53;3.80;;;3.53;;
6145;SDS011;3104;50.348;7.620;2022-09-12T17:28:19;4.07;;;3.80;;
6145;SDS011;3104;50.348;7.620;2022-09-12T17:30:45;4.03;;;3.73;;
6145;SDS011;3104;50.348;7.620;2022-09-12T17:33:18;3.80;;;3.60;;
6145;SDS011;3104;50.348;7.620;2022-09-12T17:35:44;4.43;;;4.13;;
6145;SDS011;3104;50.348;7.620;2022-09-12T17:38:10;3.73;;;3.43;;
6145;SDS011;3104;50.348;7.620;2022-09-12T17:40:35;3.50;;;3.30;;
6145;SDS011;3104;50.348;7.620;2022-09-12T17:43:01;3.67;;;3.47;;
6145;SDS011;3104;50.348;7.620;2022-09-12T17:45:27;4.03;;;3.73;;
6145;SDS011;3104;50.348;7.620;2022-09-12T17:47:53;3.40;;;3.20;;
6145;SDS011;3104;50.348;7.620;2022-09-12T17:50:19;3.60;;;3.30;;
6145;SDS011;3104;50.348;7.620;2022-09-12T17:52:44;3.87;;;3.67;;
6145;SDS011;3104;50.348;7.620;2022-09-12T17:55:11;3.37;;;3.17;;
6145;SDS011;3104;50.348;7.620;2022-09-12T17:57:39;3.73;;;3.43;;
6145;SDS011;3104;50.348;7.620;2022-09-12T18:00:05;3.47;;;3.27;;
6145;SDS011;3104;50.348;7.620;2022-09-12T18:02:31;3.80;;;3.50;;
6145;SDS011;3104;50.348;7.620;2022-09-12T18:04:57;3.67;;;3.47;;
6145;SDS011;3104;50.348;7.620;2022-09-12T18:07:23;3.70;;;3.40;;
6145;SDS011;3104;50.348;7.620;2022-09-12T18:09:49;3.80;;;3.50;;
6145;SDS011;3104;50.348;7.620;2022-09-12T18:12:16;4.53;;;4.13;;
6145;SDS011;3104;50.348;7.620;2022-09-12T18:14:42;3.47;;;3.27;;